VOL805 MMAA-MMGL
Flight info
| Callsign | VOL805 |
|---|---|
| Flight time | 0h 51m |
| Altitude | 36000 |
| Route | AGLON1B AGLON UT145 IGSON IGSON1B |
| Aircraft | A20N/M-SDE2E3FGHIRWXY/LB1 |
Departure
| Time | 2026-05-06 01:03 |
|---|---|
| Airport | General Juan N. Álvarez International Airport (MMAA) |
Arrival
| Time | 2026-05-06 01:54 |
|---|---|
| Airport | Guadalajara International Airport (MMGL) |
| Time | Latitude | Longitude | Altitude | Speed | Heading |
|---|---|---|---|---|---|
| 2026-05-06 00:29 | 16.76156 | -99.75620 | 26 ft | 0 kts | 18° |
| 2026-05-06 00:51 | 16.76152 | -99.75622 | 26 ft | 3 kts | 18° |
| 2026-05-06 00:51 | 16.76127 | -99.75630 | 26 ft | 3 kts | 18° |
| 2026-05-06 00:51 | 16.76102 | -99.75639 | 26 ft | 3 kts | 18° |
| 2026-05-06 00:52 | 16.76076 | -99.75648 | 26 ft | 3 kts | 18° |
| 2026-05-06 00:52 | 16.76055 | -99.75660 | 26 ft | 3 kts | 52° |
| 2026-05-06 00:52 | 16.76050 | -99.75684 | 26 ft | 3 kts | 104° |
| 2026-05-06 00:52 | 16.76051 | -99.75689 | 26 ft | 0 kts | 110° |
| 2026-05-06 00:54 | 16.76051 | -99.75687 | 26 ft | 3 kts | 107° |
| 2026-05-06 00:54 | 16.76047 | -99.75616 | 26 ft | 12 kts | 96° |
| 2026-05-06 00:54 | 16.76021 | -99.75517 | 26 ft | 16 kts | 107° |
| 2026-05-06 00:55 | 16.75988 | -99.75419 | 26 ft | 7 kts | 133° |
| 2026-05-06 00:55 | 16.75941 | -99.75406 | 26 ft | 7 kts | 148° |
| 2026-05-06 00:55 | 16.75905 | -99.75362 | 26 ft | 8 kts | 115° |
| 2026-05-06 00:55 | 16.75884 | -99.75300 | 26 ft | 9 kts | 108° |
| 2026-05-06 00:56 | 16.75862 | -99.75231 | 26 ft | 10 kts | 108° |
| 2026-05-06 00:56 | 16.75838 | -99.75156 | 26 ft | 11 kts | 108° |
| 2026-05-06 00:56 | 16.75813 | -99.75074 | 26 ft | 12 kts | 108° |
| 2026-05-06 00:56 | 16.75785 | -99.74987 | 26 ft | 13 kts | 109° |
| 2026-05-06 00:57 | 16.75755 | -99.74892 | 26 ft | 13 kts | 108° |
| 2026-05-06 00:57 | 16.75725 | -99.74795 | 26 ft | 14 kts | 108° |
| 2026-05-06 00:57 | 16.75693 | -99.74695 | 26 ft | 14 kts | 107° |
| 2026-05-06 00:57 | 16.75661 | -99.74590 | 26 ft | 15 kts | 108° |
| 2026-05-06 00:58 | 16.75627 | -99.74485 | 26 ft | 15 kts | 108° |
| 2026-05-06 00:58 | 16.75593 | -99.74374 | 26 ft | 16 kts | 108° |
| 2026-05-06 00:58 | 16.75556 | -99.74256 | 26 ft | 18 kts | 108° |
| 2026-05-06 00:58 | 16.75515 | -99.74127 | 25 ft | 18 kts | 108° |
| 2026-05-06 00:59 | 16.75474 | -99.73998 | 25 ft | 18 kts | 108° |
| 2026-05-06 00:59 | 16.75433 | -99.73865 | 24 ft | 19 kts | 108° |
| 2026-05-06 00:59 | 16.75391 | -99.73733 | 24 ft | 19 kts | 108° |
| 2026-05-06 00:59 | 16.75351 | -99.73604 | 25 ft | 18 kts | 108° |
| 2026-05-06 01:00 | 16.75311 | -99.73477 | 25 ft | 18 kts | 107° |
| 2026-05-06 01:00 | 16.75277 | -99.73369 | 24 ft | 16 kts | 115° |
| 2026-05-06 01:00 | 16.75200 | -99.73335 | 25 ft | 3 kts | 194° |
| 2026-05-06 01:00 | 16.75191 | -99.73338 | 25 ft | 0 kts | 194° |
| 2026-05-06 01:01 | 16.75178 | -99.73341 | 25 ft | 5 kts | 195° |
| 2026-05-06 01:01 | 16.75120 | -99.73362 | 25 ft | 11 kts | 201° |
| 2026-05-06 01:02 | 16.75103 | -99.73444 | 25 ft | 13 kts | 300° |
| 2026-05-06 01:02 | 16.75116 | -99.73484 | 25 ft | 0 kts | 285° |
| 2026-05-06 01:02 | 16.75117 | -99.73484 | 25 ft | 0 kts | 285° |
| 2026-05-06 01:02 | 16.75163 | -99.73645 | 25 ft | 57 kts | 288° |
| 2026-05-06 01:03 | 16.75352 | -99.74258 | 25 ft | 119 kts | 289° |
| 2026-05-06 01:03 | 16.75659 | -99.75266 | 97 ft | 161 kts | 284° |
| 2026-05-06 01:03 | 16.75982 | -99.76368 | 592 ft | 160 kts | 285° |
| 2026-05-06 01:03 | 16.76320 | -99.77467 | 1020 ft | 163 kts | 287° |
| 2026-05-06 01:04 | 16.76682 | -99.78597 | 1538 ft | 165 kts | 288° |
| 2026-05-06 01:04 | 16.77053 | -99.79748 | 1985 ft | 174 kts | 288° |
| 2026-05-06 01:04 | 16.77455 | -99.80990 | 2371 ft | 188 kts | 289° |
| 2026-05-06 01:04 | 16.77893 | -99.82347 | 2678 ft | 209 kts | 289° |
| 2026-05-06 01:05 | 16.78373 | -99.83831 | 3089 ft | 226 kts | 289° |
| 2026-05-06 01:05 | 16.78897 | -99.85454 | 3518 ft | 244 kts | 289° |
| 2026-05-06 01:05 | 16.79648 | -99.87103 | 3935 ft | 262 kts | 309° |
| 2026-05-06 01:05 | 16.81101 | -99.88280 | 4577 ft | 270 kts | 336° |
| 2026-05-06 01:06 | 16.82899 | -99.88831 | 5376 ft | 272 kts | 345° |
| 2026-05-06 01:06 | 16.84749 | -99.89326 | 6144 ft | 274 kts | 345° |
| 2026-05-06 01:06 | 16.86584 | -99.89826 | 6886 ft | 277 kts | 345° |
| 2026-05-06 01:06 | 16.88468 | -99.90348 | 7575 ft | 281 kts | 345° |
| 2026-05-06 01:07 | 16.90367 | -99.90876 | 8240 ft | 284 kts | 346° |
| 2026-05-06 01:07 | 16.92289 | -99.91410 | 8879 ft | 288 kts | 346° |
| 2026-05-06 01:07 | 16.94230 | -99.91964 | 9498 ft | 293 kts | 343° |
| 2026-05-06 01:07 | 16.96103 | -99.92809 | 10109 ft | 298 kts | 332° |
| 2026-05-06 01:08 | 16.97852 | -99.94056 | 10605 ft | 309 kts | 324° |
| 2026-05-06 01:08 | 16.99572 | -99.95508 | 10948 ft | 323 kts | 322° |
| 2026-05-06 01:08 | 17.01310 | -99.97020 | 11492 ft | 329 kts | 322° |
| 2026-05-06 01:08 | 17.03059 | -99.98540 | 12132 ft | 332 kts | 323° |
| 2026-05-06 01:09 | 17.04858 | -100.00092 | 12748 ft | 335 kts | 323° |
| 2026-05-06 01:09 | 17.06674 | -100.01653 | 13349 ft | 339 kts | 323° |
| 2026-05-06 01:09 | 17.08499 | -100.03210 | 13888 ft | 343 kts | 323° |
| 2026-05-06 01:09 | 17.10377 | -100.04813 | 14448 ft | 347 kts | 323° |
| 2026-05-06 01:10 | 17.12276 | -100.06436 | 15008 ft | 352 kts | 323° |
| 2026-05-06 01:10 | 17.14197 | -100.08080 | 15515 ft | 357 kts | 323° |
| 2026-05-06 01:10 | 17.16133 | -100.09734 | 15990 ft | 361 kts | 322° |
| 2026-05-06 01:10 | 17.18067 | -100.11385 | 16491 ft | 364 kts | 322° |
| 2026-05-06 01:11 | 17.20055 | -100.13084 | 17018 ft | 367 kts | 322° |
| 2026-05-06 01:11 | 17.22031 | -100.14775 | 17496 ft | 371 kts | 322° |
| 2026-05-06 01:11 | 17.24045 | -100.16502 | 17984 ft | 374 kts | 322° |
| 2026-05-06 01:11 | 17.26062 | -100.18230 | 18499 ft | 377 kts | 322° |
| 2026-05-06 01:12 | 17.28091 | -100.19971 | 18976 ft | 379 kts | 322° |
| 2026-05-06 01:12 | 17.30135 | -100.21725 | 19461 ft | 382 kts | 322° |
| 2026-05-06 01:12 | 17.32198 | -100.23495 | 19961 ft | 384 kts | 322° |
| 2026-05-06 01:12 | 17.34271 | -100.25273 | 20448 ft | 386 kts | 322° |
| 2026-05-06 01:13 | 17.36359 | -100.27065 | 20907 ft | 389 kts | 322° |
| 2026-05-06 01:13 | 17.38472 | -100.28876 | 21373 ft | 392 kts | 322° |
| 2026-05-06 01:13 | 17.40579 | -100.30685 | 21846 ft | 394 kts | 322° |
| 2026-05-06 01:13 | 17.42722 | -100.32521 | 22308 ft | 397 kts | 322° |
| 2026-05-06 01:14 | 17.47028 | -100.36211 | 23279 ft | 402 kts | 322° |
| 2026-05-06 01:14 | 17.49171 | -100.38051 | 23765 ft | 404 kts | 321° |
| 2026-05-06 01:14 | 17.51371 | -100.39941 | 24268 ft | 406 kts | 321° |
| 2026-05-06 01:15 | 17.53547 | -100.41813 | 24740 ft | 408 kts | 321° |
| 2026-05-06 01:15 | 17.55737 | -100.43697 | 25181 ft | 411 kts | 321° |
| 2026-05-06 01:15 | 17.57973 | -100.45623 | 25649 ft | 413 kts | 321° |
| 2026-05-06 01:15 | 17.60190 | -100.47533 | 26092 ft | 416 kts | 321° |
| 2026-05-06 01:16 | 17.62431 | -100.49464 | 26535 ft | 418 kts | 321° |
| 2026-05-06 01:16 | 17.64686 | -100.51409 | 26988 ft | 420 kts | 320° |
| 2026-05-06 01:16 | 17.66930 | -100.53346 | 27433 ft | 422 kts | 320° |
| 2026-05-06 01:16 | 17.69199 | -100.55305 | 27848 ft | 424 kts | 320° |
| 2026-05-06 01:17 | 17.71503 | -100.57296 | 28248 ft | 427 kts | 320° |
| 2026-05-06 01:17 | 17.73789 | -100.59272 | 28633 ft | 429 kts | 320° |
| 2026-05-06 01:17 | 17.76102 | -100.61269 | 29018 ft | 431 kts | 320° |
| 2026-05-06 01:17 | 17.78429 | -100.63277 | 29397 ft | 433 kts | 320° |
| 2026-05-06 01:18 | 17.80763 | -100.65288 | 29758 ft | 434 kts | 319° |
| 2026-05-06 01:18 | 17.83115 | -100.67316 | 30095 ft | 436 kts | 319° |
| 2026-05-06 01:18 | 17.85450 | -100.69333 | 30414 ft | 438 kts | 319° |
| 2026-05-06 01:18 | 17.87823 | -100.71384 | 30711 ft | 440 kts | 319° |
| 2026-05-06 01:19 | 17.90203 | -100.73444 | 30995 ft | 442 kts | 319° |
| 2026-05-06 01:19 | 17.92560 | -100.75483 | 31275 ft | 444 kts | 319° |
| 2026-05-06 01:19 | 17.94948 | -100.77549 | 31545 ft | 446 kts | 319° |
| 2026-05-06 01:19 | 17.97367 | -100.79638 | 31819 ft | 447 kts | 319° |
| 2026-05-06 01:20 | 17.99777 | -100.81719 | 32112 ft | 448 kts | 319° |
| 2026-05-06 01:20 | 18.02166 | -100.83785 | 32466 ft | 447 kts | 318° |
| 2026-05-06 01:20 | 18.04563 | -100.85859 | 32868 ft | 445 kts | 318° |
| 2026-05-06 01:20 | 18.06929 | -100.87913 | 33296 ft | 443 kts | 318° |
| 2026-05-06 01:21 | 18.09304 | -100.89973 | 33724 ft | 441 kts | 319° |
| 2026-05-06 01:21 | 18.11691 | -100.92044 | 34130 ft | 439 kts | 319° |
| 2026-05-06 01:21 | 18.14093 | -100.94124 | 34502 ft | 438 kts | 319° |
| 2026-05-06 01:21 | 18.16452 | -100.96168 | 34811 ft | 437 kts | 319° |
| 2026-05-06 01:22 | 18.18817 | -100.98216 | 35075 ft | 438 kts | 319° |
| 2026-05-06 01:22 | 18.21147 | -101.00240 | 35321 ft | 438 kts | 319° |
| 2026-05-06 01:22 | 18.23521 | -101.02301 | 35560 ft | 439 kts | 319° |
| 2026-05-06 01:22 | 18.25882 | -101.04355 | 35801 ft | 439 kts | 319° |
| 2026-05-06 01:23 | 18.28234 | -101.06402 | 36004 ft | 440 kts | 319° |
| 2026-05-06 01:23 | 18.30580 | -101.08443 | 36013 ft | 441 kts | 319° |
| 2026-05-06 01:23 | 18.35317 | -101.12567 | 36017 ft | 442 kts | 319° |
| 2026-05-06 01:24 | 18.40061 | -101.16699 | 35994 ft | 442 kts | 319° |
| 2026-05-06 01:24 | 18.44808 | -101.20835 | 35970 ft | 442 kts | 319° |
| 2026-05-06 01:25 | 18.49557 | -101.24982 | 35948 ft | 442 kts | 319° |
| 2026-05-06 01:25 | 18.54281 | -101.29109 | 35927 ft | 441 kts | 319° |
| 2026-05-06 01:26 | 18.59023 | -101.33240 | 35950 ft | 441 kts | 319° |
| 2026-05-06 01:26 | 18.63725 | -101.37344 | 35949 ft | 441 kts | 319° |
| 2026-05-06 01:27 | 18.68464 | -101.41489 | 35970 ft | 441 kts | 319° |
| 2026-05-06 01:27 | 18.73186 | -101.45622 | 35987 ft | 441 kts | 319° |
| 2026-05-06 01:28 | 18.77896 | -101.49748 | 36008 ft | 441 kts | 319° |
| 2026-05-06 01:28 | 18.82626 | -101.53895 | 36014 ft | 440 kts | 319° |
| 2026-05-06 01:29 | 18.87326 | -101.58019 | 35998 ft | 440 kts | 319° |
| 2026-05-06 01:29 | 18.92029 | -101.62149 | 35980 ft | 439 kts | 319° |
| 2026-05-06 01:30 | 18.96734 | -101.66283 | 35968 ft | 440 kts | 319° |
| 2026-05-06 01:30 | 19.01450 | -101.70430 | 35955 ft | 439 kts | 318° |
| 2026-05-06 01:31 | 19.06143 | -101.74559 | 35968 ft | 439 kts | 318° |
| 2026-05-06 01:31 | 19.10837 | -101.78695 | 36015 ft | 438 kts | 318° |
| 2026-05-06 01:32 | 19.15532 | -101.82835 | 35699 ft | 438 kts | 318° |
| 2026-05-06 01:32 | 19.17882 | -101.84905 | 35233 ft | 435 kts | 318° |
| 2026-05-06 01:32 | 19.20184 | -101.86938 | 34695 ft | 432 kts | 318° |
| 2026-05-06 01:33 | 19.22495 | -101.88978 | 34102 ft | 430 kts | 318° |
| 2026-05-06 01:33 | 19.24774 | -101.90992 | 33495 ft | 429 kts | 317° |
| 2026-05-06 01:33 | 19.27054 | -101.93008 | 32876 ft | 429 kts | 317° |
| 2026-05-06 01:33 | 19.29341 | -101.95032 | 32292 ft | 429 kts | 317° |
| 2026-05-06 01:34 | 19.31640 | -101.97070 | 31681 ft | 430 kts | 317° |
| 2026-05-06 01:34 | 19.33930 | -101.99097 | 31241 ft | 427 kts | 317° |
| 2026-05-06 01:34 | 19.36192 | -102.01084 | 30807 ft | 424 kts | 319° |
| 2026-05-06 01:34 | 19.38574 | -102.02961 | 30357 ft | 422 kts | 323° |
| 2026-05-06 01:35 | 19.41015 | -102.04613 | 29923 ft | 421 kts | 327° |
| 2026-05-06 01:35 | 19.43589 | -102.06094 | 29508 ft | 419 kts | 331° |
| 2026-05-06 01:35 | 19.46204 | -102.07419 | 29080 ft | 416 kts | 333° |
| 2026-05-06 01:35 | 19.48830 | -102.08719 | 28660 ft | 413 kts | 333° |
| 2026-05-06 01:36 | 19.51426 | -102.10001 | 28245 ft | 411 kts | 333° |
| 2026-05-06 01:36 | 19.54013 | -102.11284 | 27823 ft | 408 kts | 333° |
| 2026-05-06 01:36 | 19.56573 | -102.12555 | 27408 ft | 405 kts | 333° |
| 2026-05-06 01:36 | 19.59133 | -102.13828 | 26996 ft | 403 kts | 333° |
| 2026-05-06 01:37 | 19.61644 | -102.15080 | 26572 ft | 401 kts | 333° |
| 2026-05-06 01:37 | 19.64184 | -102.16344 | 26143 ft | 399 kts | 333° |
| 2026-05-06 01:37 | 19.66719 | -102.17609 | 25724 ft | 397 kts | 333° |
| 2026-05-06 01:37 | 19.69204 | -102.18849 | 25311 ft | 396 kts | 333° |
| 2026-05-06 01:38 | 19.71680 | -102.20085 | 24894 ft | 394 kts | 333° |
| 2026-05-06 01:38 | 19.74162 | -102.21326 | 24517 ft | 398 kts | 334° |
| 2026-05-06 01:38 | 19.76700 | -102.22594 | 24426 ft | 405 kts | 334° |
| 2026-05-06 01:38 | 19.79257 | -102.23872 | 24416 ft | 407 kts | 334° |
| 2026-05-06 01:39 | 19.81837 | -102.25161 | 24405 ft | 408 kts | 334° |
| 2026-05-06 01:39 | 19.84404 | -102.26445 | 24389 ft | 407 kts | 334° |
| 2026-05-06 01:39 | 19.86952 | -102.27718 | 24237 ft | 399 kts | 334° |
| 2026-05-06 01:39 | 19.89320 | -102.29177 | 23911 ft | 389 kts | 317° |
| 2026-05-06 01:40 | 19.90968 | -102.31374 | 23464 ft | 380 kts | 292° |
| 2026-05-06 01:40 | 19.91911 | -102.34005 | 22702 ft | 384 kts | 284° |
| 2026-05-06 01:40 | 19.92684 | -102.36743 | 21859 ft | 394 kts | 283° |
| 2026-05-06 01:40 | 19.93507 | -102.39545 | 21062 ft | 402 kts | 285° |
| 2026-05-06 01:41 | 19.94394 | -102.42349 | 20513 ft | 402 kts | 286° |
| 2026-05-06 01:41 | 19.95488 | -102.45664 | 19981 ft | 398 kts | 287° |
| 2026-05-06 01:41 | 19.96413 | -102.48441 | 19532 ft | 395 kts | 287° |
| 2026-05-06 01:41 | 19.97316 | -102.51141 | 18986 ft | 388 kts | 287° |
| 2026-05-06 01:42 | 19.98211 | -102.53827 | 18167 ft | 385 kts | 287° |
| 2026-05-06 01:42 | 19.99097 | -102.56501 | 17324 ft | 381 kts | 287° |
| 2026-05-06 01:42 | 19.99977 | -102.59096 | 16517 ft | 376 kts | 292° |
| 2026-05-06 01:42 | 20.01392 | -102.61392 | 15949 ft | 364 kts | 316° |
| 2026-05-06 01:43 | 20.03414 | -102.62893 | 15545 ft | 352 kts | 333° |
| 2026-05-06 01:43 | 20.05591 | -102.64037 | 15142 ft | 343 kts | 334° |
| 2026-05-06 01:43 | 20.07795 | -102.64934 | 14844 ft | 342 kts | 352° |
| 2026-05-06 01:43 | 20.10179 | -102.64879 | 14611 ft | 340 kts | 9° |
| 2026-05-06 01:44 | 20.12563 | -102.64677 | 14354 ft | 339 kts | 353° |
| 2026-05-06 01:44 | 20.14774 | -102.65499 | 14109 ft | 340 kts | 326° |
| 2026-05-06 01:44 | 20.16371 | -102.67315 | 13883 ft | 337 kts | 297° |
| 2026-05-06 01:44 | 20.17129 | -102.69647 | 13684 ft | 336 kts | 285° |
| 2026-05-06 01:45 | 20.17891 | -102.72026 | 13469 ft | 334 kts | 294° |
| 2026-05-06 01:45 | 20.18945 | -102.74217 | 13212 ft | 333 kts | 301° |
| 2026-05-06 01:45 | 20.20185 | -102.76266 | 12886 ft | 331 kts | 305° |
| 2026-05-06 01:45 | 20.21553 | -102.78254 | 12520 ft | 329 kts | 308° |
| 2026-05-06 01:46 | 20.22962 | -102.80167 | 12138 ft | 327 kts | 309° |
| 2026-05-06 01:46 | 20.24387 | -102.82033 | 11756 ft | 326 kts | 309° |
| 2026-05-06 01:46 | 20.25826 | -102.83884 | 11373 ft | 325 kts | 309° |
| 2026-05-06 01:46 | 20.27274 | -102.85735 | 10990 ft | 323 kts | 309° |
| 2026-05-06 01:47 | 20.28712 | -102.87566 | 10606 ft | 320 kts | 309° |
| 2026-05-06 01:47 | 20.30128 | -102.89368 | 10247 ft | 317 kts | 309° |
| 2026-05-06 01:47 | 20.31515 | -102.91132 | 10197 ft | 302 kts | 309° |
| 2026-05-06 01:47 | 20.32857 | -102.92838 | 9953 ft | 297 kts | 309° |
| 2026-05-06 01:48 | 20.34170 | -102.94505 | 9588 ft | 296 kts | 308° |
| 2026-05-06 01:48 | 20.35498 | -102.96194 | 9265 ft | 293 kts | 308° |
| 2026-05-06 01:48 | 20.36779 | -102.97821 | 9186 ft | 279 kts | 308° |
| 2026-05-06 01:48 | 20.37987 | -102.99356 | 9183 ft | 264 kts | 308° |
| 2026-05-06 01:49 | 20.39146 | -103.00831 | 9182 ft | 253 kts | 307° |
| 2026-05-06 01:49 | 20.40113 | -103.02374 | 9179 ft | 250 kts | 295° |
| 2026-05-06 01:49 | 20.40865 | -103.04051 | 9176 ft | 250 kts | 292° |
| 2026-05-06 01:49 | 20.41570 | -103.05735 | 9047 ft | 250 kts | 292° |
| 2026-05-06 01:50 | 20.42261 | -103.07409 | 8775 ft | 248 kts | 292° |
| 2026-05-06 01:50 | 20.42961 | -103.09102 | 8490 ft | 246 kts | 292° |
| 2026-05-06 01:50 | 20.43639 | -103.10733 | 8253 ft | 242 kts | 292° |
| 2026-05-06 01:50 | 20.44328 | -103.12384 | 7930 ft | 241 kts | 292° |
| 2026-05-06 01:51 | 20.45004 | -103.14000 | 7655 ft | 239 kts | 293° |
| 2026-05-06 01:51 | 20.45671 | -103.15593 | 7380 ft | 230 kts | 293° |
| 2026-05-06 01:51 | 20.46312 | -103.17120 | 7114 ft | 218 kts | 293° |
| 2026-05-06 01:51 | 20.46910 | -103.18549 | 6957 ft | 203 kts | 293° |
| 2026-05-06 01:52 | 20.47466 | -103.19872 | 6733 ft | 189 kts | 293° |
| 2026-05-06 01:52 | 20.47979 | -103.21098 | 6483 ft | 177 kts | 293° |
| 2026-05-06 01:52 | 20.48465 | -103.22255 | 6257 ft | 162 kts | 293° |
| 2026-05-06 01:52 | 20.48904 | -103.23302 | 6047 ft | 147 kts | 293° |
| 2026-05-06 01:53 | 20.49318 | -103.24289 | 5893 ft | 145 kts | 293° |
| 2026-05-06 01:53 | 20.49727 | -103.25266 | 5745 ft | 145 kts | 293° |
| 2026-05-06 01:53 | 20.50143 | -103.26255 | 5587 ft | 144 kts | 293° |
| 2026-05-06 01:53 | 20.50553 | -103.27232 | 5424 ft | 144 kts | 293° |
| 2026-05-06 01:54 | 20.50961 | -103.28204 | 5258 ft | 144 kts | 293° |
| 2026-05-06 01:54 | 20.51366 | -103.29176 | 5099 ft | 144 kts | 293° |
| 2026-05-06 01:54 | 20.51765 | -103.30122 | 5035 ft | 127 kts | 295° |
| 2026-05-06 01:54 | 20.51996 | -103.30673 | 5035 ft | 31 kts | 302° |
| 2026-05-06 01:55 | 20.52135 | -103.30835 | 5035 ft | 28 kts | 324° |
| 2026-05-06 01:55 | 20.52241 | -103.30916 | 5035 ft | 2 kts | 324° |
| 2026-05-06 01:55 | 20.52253 | -103.30925 | 5035 ft | 0 kts | 324° |
| 2026-05-06 01:56 | 20.52275 | -103.30942 | 5035 ft | 9 kts | 324° |
| 2026-05-06 01:56 | 20.52359 | -103.30996 | 5034 ft | 16 kts | 358° |
| 2026-05-06 01:56 | 20.52479 | -103.30931 | 5031 ft | 22 kts | 27° |
| 2026-05-06 01:57 | 20.52632 | -103.30838 | 5029 ft | 23 kts | 30° |
| 2026-05-06 01:57 | 20.52777 | -103.30747 | 5026 ft | 26 kts | 31° |
| 2026-05-06 01:57 | 20.52951 | -103.30640 | 5024 ft | 31 kts | 29° |
| 2026-05-06 01:57 | 20.53130 | -103.30527 | 5022 ft | 22 kts | 26° |
| 2026-05-06 01:58 | 20.53148 | -103.30517 | 5021 ft | 0 kts | 27° |
| 2026-05-06 01:58 | 20.53157 | -103.30512 | 5021 ft | 3 kts | 36° |
| 2026-05-06 01:58 | 20.53151 | -103.30442 | 5021 ft | 16 kts | 113° |
| 2026-05-06 01:58 | 20.53133 | -103.30407 | 5021 ft | 0 kts | 121° |
| 2026-05-06 01:59 | 20.53111 | -103.30370 | 5022 ft | 4 kts | 122° |
| 2026-05-06 01:59 | 20.53080 | -103.30381 | 5022 ft | 8 kts | 244° |